createdAt,value
2019-02-20T00:01:14.057Z,12.47
2019-02-20T00:03:43.403Z,15.53
2019-02-20T00:06:11.976Z,7.73
2019-02-20T00:08:39.273Z,9.17
2019-02-20T00:11:08.804Z,10.00
2019-02-20T00:13:37.013Z,9.43
2019-02-20T00:16:04.748Z,9.90
2019-02-20T00:18:32.985Z,7.70
2019-02-20T00:21:03.754Z,7.00
2019-02-20T00:23:32.071Z,13.23
2019-02-20T00:26:00.864Z,7.23
2019-02-20T00:28:29.142Z,7.77
2019-02-20T00:30:57.971Z,8.37
2019-02-20T00:33:26.832Z,10.10
2019-02-20T00:35:55.380Z,11.27
2019-02-20T00:38:23.703Z,13.23
2019-02-20T00:40:51.969Z,14.20
2019-02-20T00:43:20.186Z,11.63
2019-02-20T00:46:06.328Z,8.97
2019-02-20T00:49:02.791Z,12.00
2019-02-20T00:51:45.391Z,9.90
2019-02-20T00:54:13.558Z,7.60
2019-02-20T00:56:43.074Z,8.73
2019-02-20T00:59:10.467Z,9.90
2019-02-20T01:01:39.444Z,9.90
2019-02-20T01:04:08.211Z,10.20
2019-02-20T01:06:36.601Z,11.07
2019-02-20T01:09:05.359Z,13.60
2019-02-20T01:11:33.037Z,9.90
2019-02-20T01:14:00.999Z,12.83
2019-02-20T01:16:29.387Z,8.33
2019-02-20T01:18:58.125Z,9.63
2019-02-20T01:21:26.262Z,10.83
2019-02-20T01:23:54.323Z,11.00
2019-02-20T01:26:21.986Z,8.20
2019-02-20T01:28:50.255Z,11.83
2019-02-20T01:31:17.674Z,8.57
2019-02-20T01:33:46.337Z,14.40
2019-02-20T01:36:14.791Z,11.53
2019-02-20T01:38:46.163Z,10.10
2019-02-20T01:41:14.205Z,10.03
2019-02-20T01:43:42.491Z,9.73
2019-02-20T01:46:11.986Z,10.27
2019-02-20T01:48:40.763Z,7.80
2019-02-20T01:51:09.527Z,12.70
2019-02-20T01:53:37.728Z,10.53
2019-02-20T01:56:05.387Z,10.50
2019-02-20T01:58:33.781Z,8.23
2019-02-20T02:01:01.860Z,10.87
2019-02-20T02:03:30.030Z,10.03
2019-02-20T02:05:57.702Z,10.13
2019-02-20T02:08:25.754Z,11.83
2019-02-20T02:10:53.096Z,5.30
2019-02-20T02:13:21.893Z,6.27
2019-02-20T02:15:50.662Z,7.23
2019-02-20T02:18:19.184Z,9.20
2019-02-20T02:20:48.323Z,7.90
2019-02-20T02:23:19.805Z,12.13
2019-02-20T02:25:47.268Z,12.20
2019-02-20T02:28:15.269Z,9.80
2019-02-20T02:30:44.285Z,12.23
2019-02-20T02:33:13.063Z,9.87
2019-02-20T02:35:41.016Z,12.53
2019-02-20T02:38:09.074Z,10.40
2019-02-20T02:40:37.759Z,9.80
2019-02-20T02:43:06.141Z,13.63
2019-02-20T02:45:34.827Z,11.93
2019-02-20T02:48:02.520Z,9.13
2019-02-20T02:50:30.658Z,13.97
2019-02-20T02:52:58.630Z,8.07
2019-02-20T02:55:26.369Z,11.07
2019-02-20T02:57:54.543Z,9.27
2019-02-20T03:00:23.006Z,7.67
2019-02-20T03:02:53.444Z,9.83
2019-02-20T03:05:21.762Z,6.20
2019-02-20T03:07:49.435Z,8.90
2019-02-20T03:10:18.195Z,9.83
2019-02-20T03:12:47.005Z,8.23
2019-02-20T03:15:34.148Z,10.70
2019-02-20T03:18:01.682Z,9.73
2019-02-20T03:20:29.336Z,19.27
2019-02-20T03:22:57.418Z,9.30
2019-02-20T03:25:25.086Z,8.50
2019-02-20T03:27:55.909Z,11.37
2019-02-20T03:30:24.313Z,8.70
2019-02-20T03:32:55.191Z,10.23
2019-02-20T03:35:23.339Z,11.87
2019-02-20T03:37:54.262Z,15.13
2019-02-20T03:40:22.321Z,6.50
2019-02-20T03:42:50.103Z,11.35
2019-02-20T03:45:18.199Z,9.77
2019-02-20T03:47:46.335Z,6.63
2019-02-20T03:50:14.613Z,12.03
2019-02-20T03:52:42.924Z,7.40
2019-02-20T03:55:10.655Z,8.10
2019-02-20T03:57:39.063Z,12.70
2019-02-20T04:00:07.987Z,7.63
2019-02-20T04:02:36.012Z,16.43
2019-02-20T04:05:04.138Z,12.67
2019-02-20T04:07:32.746Z,18.57
2019-02-20T04:10:00.963Z,10.80
2019-02-20T04:12:29.814Z,8.20
2019-02-20T04:14:57.915Z,13.40
2019-02-20T04:17:27.003Z,11.95
2019-02-20T04:19:54.619Z,11.23
2019-02-20T04:22:22.636Z,9.28
2019-02-20T04:24:50.069Z,9.47
2019-02-20T04:27:18.043Z,8.58
2019-02-20T04:29:46.461Z,7.53
2019-02-20T04:32:14.922Z,10.65
2019-02-20T04:34:43.507Z,9.75
2019-02-20T04:37:12.186Z,10.17
2019-02-20T04:39:40.257Z,9.23
2019-02-20T04:42:08.339Z,16.67
2019-02-20T04:44:36.407Z,6.15
2019-02-20T04:47:04.620Z,13.03
2019-02-20T04:49:33.411Z,10.40
2019-02-20T04:52:02.809Z,7.00
2019-02-20T04:54:30.839Z,9.83
2019-02-20T04:56:58.923Z,8.23
2019-02-20T04:59:29.068Z,10.40
2019-02-20T05:01:57.103Z,9.63
2019-02-20T05:04:27.515Z,10.38
2019-02-20T05:06:58.960Z,9.63
2019-02-20T05:09:27.163Z,13.47
2019-02-20T05:11:55.389Z,13.30
2019-02-20T05:14:24.012Z,9.60
2019-02-20T05:16:52.109Z,15.80
2019-02-20T05:19:21.337Z,13.50
2019-02-20T05:21:49.473Z,10.23
2019-02-20T05:24:24.479Z,9.83
2019-02-20T05:26:50.276Z,8.93
2019-02-20T05:29:17.991Z,9.67
2019-02-20T05:31:45.761Z,8.87
2019-02-20T05:34:13.836Z,10.27
2019-02-20T05:36:42.638Z,11.77
2019-02-20T05:39:10.801Z,9.50
2019-02-20T05:41:39.414Z,6.23
2019-02-20T05:44:08.871Z,11.10
2019-02-20T05:46:37.561Z,7.80
2019-02-20T05:49:06.444Z,11.35
2019-02-20T05:51:34.603Z,19.23
2019-02-20T05:54:02.835Z,11.17
2019-02-20T05:56:32.266Z,11.08
2019-02-20T05:58:59.784Z,17.80
2019-02-20T06:01:29.611Z,11.00
2019-02-20T06:03:57.477Z,8.53
2019-02-20T06:06:26.368Z,15.37
2019-02-20T06:08:55.656Z,9.37
2019-02-20T06:11:23.510Z,9.43
2019-02-20T06:13:53.117Z,10.07
2019-02-20T06:16:23.612Z,8.70
2019-02-20T06:18:52.300Z,11.03
2019-02-20T06:21:20.402Z,9.30
2019-02-20T06:23:48.630Z,13.40
2019-02-20T06:26:16.515Z,11.87
2019-02-20T06:28:44.932Z,9.43
2019-02-20T06:31:15.682Z,11.13
2019-02-20T06:33:44.239Z,7.70
2019-02-20T06:36:11.851Z,13.53
2019-02-20T06:38:42.069Z,8.03
2019-02-20T06:41:10.577Z,13.40
2019-02-20T06:43:39.133Z,12.43
2019-02-20T06:46:09.325Z,12.43
2019-02-20T06:48:37.683Z,16.27
2019-02-20T06:51:07.292Z,11.13
2019-02-20T06:53:38.109Z,12.63
2019-02-20T06:56:06.163Z,9.13
2019-02-20T06:58:34.752Z,10.80
2019-02-20T07:01:06.179Z,14.53
2019-02-20T07:03:37.094Z,12.27
2019-02-20T07:06:32.780Z,10.07
2019-02-20T07:09:45.230Z,12.73
2019-02-20T07:12:46.596Z,18.50
2019-02-20T07:15:59.390Z,15.00
2019-02-20T07:18:41.448Z,12.53
2019-02-20T07:21:44.992Z,12.53
2019-02-20T07:24:48.103Z,13.53
2019-02-20T07:27:35.553Z,7.83
2019-02-20T07:30:05.882Z,12.77
2019-02-20T07:32:34.286Z,12.00
2019-02-20T07:35:04.357Z,11.43
2019-02-20T07:37:33.428Z,11.10
2019-02-20T07:40:01.540Z,11.00
2019-02-20T07:42:30.899Z,11.70
2019-02-20T07:44:59.099Z,15.80
2019-02-20T07:47:27.205Z,11.60
2019-02-20T07:49:55.991Z,11.33
2019-02-20T07:52:24.069Z,12.70
2019-02-20T07:54:55.584Z,13.30
2019-02-20T07:57:23.163Z,9.77
2019-02-20T07:59:52.838Z,15.97
2019-02-20T08:02:20.913Z,24.13
2019-02-20T08:04:49.163Z,14.37
2019-02-20T08:07:17.248Z,13.53
2019-02-20T08:09:46.070Z,24.63
2019-02-20T08:12:34.544Z,11.40
2019-02-20T08:15:04.876Z,15.63
2019-02-20T08:17:33.599Z,10.47
2019-02-20T08:20:03.092Z,14.10
2019-02-20T08:22:32.055Z,20.43
2019-02-20T08:25:00.928Z,16.97
2019-02-20T08:27:29.609Z,15.50
2019-02-20T08:29:59.328Z,21.03
2019-02-20T08:32:27.319Z,13.97
2019-02-20T08:34:56.363Z,11.83
2019-02-20T08:37:24.500Z,18.17
2019-02-20T08:39:52.850Z,12.57
2019-02-20T08:42:21.026Z,14.73
2019-02-20T08:44:49.699Z,17.60
2019-02-20T08:47:19.153Z,12.43
2019-02-20T08:49:49.851Z,25.10
2019-02-20T08:52:18.798Z,17.83
2019-02-20T08:54:47.612Z,13.27
2019-02-20T08:57:16.591Z,20.70
2019-02-20T08:59:44.699Z,16.50
2019-02-20T09:02:13.052Z,13.70
2019-02-20T09:04:41.153Z,13.97
2019-02-20T09:07:09.204Z,19.63
2019-02-20T09:09:38.103Z,17.70
2019-02-20T09:12:06.187Z,12.70
2019-02-20T09:14:34.198Z,18.20
2019-02-20T09:17:03.495Z,16.90
2019-02-20T09:19:32.691Z,15.03
2019-02-20T09:22:01.469Z,17.83
2019-02-20T09:24:30.349Z,15.77
2019-02-20T09:26:58.305Z,15.77
2019-02-20T09:29:26.856Z,24.47
2019-02-20T09:31:55.272Z,18.70
2019-02-20T09:34:24.127Z,17.87
2019-02-20T09:36:52.530Z,16.63
2019-02-20T09:39:38.567Z,12.90
2019-02-20T09:42:08.497Z,20.23
2019-02-20T09:44:47.561Z,17.90
2019-02-20T09:47:16.198Z,17.13
2019-02-20T09:49:44.011Z,20.57
2019-02-20T09:52:14.657Z,15.27
2019-02-20T09:54:43.025Z,21.70
2019-02-20T09:57:11.839Z,19.00
2019-02-20T09:59:42.754Z,21.03
2019-02-20T10:02:10.827Z,16.43
2019-02-20T10:04:39.896Z,16.80
2019-02-20T10:07:07.796Z,19.30
2019-02-20T10:09:36.752Z,21.33
2019-02-20T10:12:04.864Z,15.20
2019-02-20T10:14:33.276Z,20.93
2019-02-20T10:17:01.312Z,16.93
2019-02-20T10:19:29.419Z,18.93
2019-02-20T10:21:57.580Z,21.30
2019-02-20T10:24:26.339Z,20.93
2019-02-20T10:27:00.584Z,19.77
2019-02-20T10:29:25.112Z,17.90
2019-02-20T10:31:52.441Z,18.10
2019-02-20T10:34:20.880Z,18.73
2019-02-20T10:36:49.121Z,19.43
2019-02-20T10:39:17.241Z,17.77
2019-02-20T10:41:46.127Z,20.90
2019-02-20T10:44:14.097Z,16.10
2019-02-20T10:46:42.893Z,18.70
2019-02-20T10:49:11.079Z,14.90
2019-02-20T10:51:39.549Z,17.47
2019-02-20T10:54:07.699Z,17.70
2019-02-20T10:56:35.411Z,16.20
2019-02-20T10:59:03.855Z,15.30
2019-02-20T11:01:32.079Z,25.70
2019-02-20T11:04:00.242Z,22.60
2019-02-20T11:06:27.926Z,17.97
2019-02-20T11:08:56.307Z,24.23
2019-02-20T11:11:27.913Z,18.27
2019-02-20T11:13:55.620Z,21.47
2019-02-20T11:16:24.459Z,21.30
2019-02-20T11:18:52.775Z,20.90
2019-02-20T11:21:21.009Z,21.60
2019-02-20T11:23:48.687Z,19.43
2019-02-20T11:26:18.952Z,19.97
2019-02-20T11:28:46.993Z,16.53
2019-02-20T11:31:15.351Z,19.00
2019-02-20T11:33:46.215Z,20.93
2019-02-20T11:36:14.373Z,22.57
2019-02-20T11:38:42.450Z,19.50
2019-02-20T11:41:13.464Z,22.47
2019-02-20T11:43:41.258Z,19.13
2019-02-20T11:46:09.002Z,22.43
2019-02-20T11:48:37.600Z,25.07
2019-02-20T11:51:06.758Z,23.93
2019-02-20T11:53:37.441Z,25.60
2019-02-20T11:56:05.904Z,21.37
2019-02-20T11:58:34.792Z,21.53
2019-02-20T12:01:03.574Z,25.30
2019-02-20T12:03:32.601Z,21.67
2019-02-20T12:06:01.981Z,26.07
2019-02-20T12:08:31.304Z,22.53
2019-02-20T12:11:00.459Z,20.13
2019-02-20T12:13:28.455Z,30.03
2019-02-20T12:15:59.529Z,24.40
2019-02-20T12:18:28.267Z,25.83
2019-02-20T12:20:56.672Z,21.43
2019-02-20T12:23:25.463Z,23.77
2019-02-20T12:25:54.400Z,24.00
2019-02-20T12:28:24.433Z,22.90
2019-02-20T12:30:52.539Z,20.17
2019-02-20T12:33:21.170Z,28.30
2019-02-20T12:35:49.218Z,25.10
2019-02-20T12:38:20.335Z,38.73
2019-02-20T12:40:48.726Z,20.90
2019-02-20T12:43:18.039Z,24.67
2019-02-20T12:45:46.712Z,23.37
2019-02-20T12:48:15.005Z,21.63
2019-02-20T12:50:43.267Z,20.43
2019-02-20T12:53:13.887Z,23.20
2019-02-20T12:55:42.295Z,14.30
2019-02-20T12:58:10.508Z,18.43
2019-02-20T13:00:38.826Z,19.73
2019-02-20T13:03:07.489Z,19.27
2019-02-20T13:05:35.544Z,19.60
2019-02-20T13:08:06.952Z,17.53
2019-02-20T13:10:36.589Z,22.10
2019-02-20T13:13:04.881Z,16.50
2019-02-20T13:15:33.281Z,15.77
2019-02-20T13:18:01.306Z,17.90
2019-02-20T13:20:30.196Z,20.60
2019-02-20T13:22:57.927Z,18.00
2019-02-20T13:25:26.100Z,22.30
2019-02-20T13:27:54.315Z,23.60
2019-02-20T13:30:21.923Z,21.47
2019-02-20T13:33:00.206Z,20.00
2019-02-20T13:35:29.720Z,17.97
2019-02-20T13:38:00.592Z,24.47
2019-02-20T13:40:30.219Z,14.60
2019-02-20T13:42:57.990Z,22.60
2019-02-20T13:45:26.581Z,15.83
2019-02-20T13:47:54.739Z,13.17
2019-02-20T13:50:23.220Z,16.20
2019-02-20T13:52:54.070Z,19.17
2019-02-20T13:55:22.708Z,22.17
2019-02-20T13:57:51.955Z,13.57
2019-02-20T14:00:20.008Z,17.80
2019-02-20T14:02:49.198Z,16.50
2019-02-20T14:05:18.153Z,20.10
2019-02-20T14:07:46.725Z,16.00
2019-02-20T14:10:14.073Z,16.17
2019-02-20T14:12:44.082Z,19.07
2019-02-20T14:15:13.486Z,21.17
2019-02-20T14:17:41.784Z,18.97
2019-02-20T14:20:10.532Z,18.33
2019-02-20T14:22:40.510Z,21.00
2019-02-20T14:25:08.249Z,18.23
2019-02-20T14:27:37.334Z,15.60
2019-02-20T14:30:05.299Z,16.27
2019-02-20T14:32:35.080Z,20.87
2019-02-20T14:35:03.126Z,18.17
2019-02-20T14:37:31.000Z,17.73
2019-02-20T14:40:00.054Z,17.97
2019-02-20T14:42:27.888Z,19.60
2019-02-20T14:44:57.970Z,16.20
2019-02-20T14:47:26.786Z,14.00
2019-02-20T14:49:55.444Z,20.20
2019-02-20T14:52:23.711Z,18.17
2019-02-20T14:54:53.170Z,19.10
2019-02-20T14:57:21.854Z,23.10
2019-02-20T14:59:49.517Z,16.73
2019-02-20T15:02:17.821Z,12.37
2019-02-20T15:04:47.751Z,14.30
2019-02-20T15:07:16.003Z,14.10
2019-02-20T15:09:45.611Z,16.73
2019-02-20T15:12:14.607Z,14.00
2019-02-20T15:14:43.341Z,18.47
2019-02-20T15:17:11.664Z,12.97
2019-02-20T15:19:40.395Z,13.33
2019-02-20T15:22:09.909Z,16.13
2019-02-20T15:24:43.230Z,17.93
2019-02-20T15:27:12.135Z,15.80
2019-02-20T15:29:40.759Z,13.17
2019-02-20T15:32:08.804Z,11.77
2019-02-20T15:34:38.325Z,18.67
2019-02-20T15:37:06.876Z,15.07
2019-02-20T15:39:35.260Z,13.37
2019-02-20T15:42:03.106Z,18.93
2019-02-20T15:44:31.977Z,17.43
2019-02-20T15:47:00.663Z,15.50
2019-02-20T15:49:28.743Z,18.00
2019-02-20T15:51:56.889Z,15.03
2019-02-20T15:54:25.412Z,12.90
2019-02-20T15:56:53.719Z,15.50
2019-02-20T15:59:23.952Z,14.40
2019-02-20T16:01:52.081Z,15.47
2019-02-20T16:04:20.534Z,16.40
2019-02-20T16:06:49.730Z,15.00
2019-02-20T16:09:19.441Z,15.40
2019-02-20T16:11:48.303Z,15.53
2019-02-20T16:14:16.946Z,14.27
2019-02-20T16:16:45.973Z,16.30
2019-02-20T16:19:13.644Z,16.60
2019-02-20T16:21:43.088Z,22.23
2019-02-20T16:24:11.523Z,9.53
2019-02-20T16:26:41.273Z,14.20
2019-02-20T16:29:09.415Z,10.63
2019-02-20T16:31:38.893Z,16.70
2019-02-20T16:34:07.531Z,12.40
2019-02-20T16:36:35.664Z,15.53
2019-02-20T16:39:05.236Z,15.50
2019-02-20T16:41:34.866Z,17.10
2019-02-20T16:44:03.145Z,12.70
2019-02-20T16:46:32.089Z,19.57
2019-02-20T16:49:01.041Z,14.33
2019-02-20T16:51:37.055Z,16.07
2019-02-20T16:54:06.512Z,17.63
2019-02-20T16:56:40.689Z,14.33
2019-02-20T16:59:12.528Z,16.40
2019-02-20T17:01:50.978Z,14.83
2019-02-20T17:04:25.267Z,20.00
2019-02-20T17:07:04.434Z,13.33
2019-02-20T17:09:38.413Z,19.43
2019-02-20T17:12:09.045Z,21.77
2019-02-20T17:14:38.749Z,14.43
2019-02-20T17:17:06.900Z,18.40
2019-02-20T17:19:35.462Z,16.53
2019-02-20T17:22:04.180Z,18.33
2019-02-20T17:24:33.405Z,22.83
2019-02-20T17:27:01.419Z,17.17
2019-02-20T17:29:29.903Z,22.83
2019-02-20T17:32:06.476Z,19.33
2019-02-20T17:34:34.433Z,23.87
2019-02-20T17:37:02.519Z,18.37
2019-02-20T17:39:31.373Z,16.10
2019-02-20T17:42:01.427Z,19.00
2019-02-20T17:44:30.412Z,22.63
2019-02-20T17:46:58.913Z,30.40
2019-02-20T17:49:27.588Z,24.40
2019-02-20T17:51:55.578Z,61.93
2019-02-20T17:54:25.266Z,40.00
2019-02-20T17:56:53.429Z,20.27
2019-02-20T17:59:21.924Z,112.17
2019-02-20T18:01:50.234Z,101.67
2019-02-20T18:04:18.368Z,39.73
2019-02-20T18:06:46.511Z,28.30
2019-02-20T18:09:15.655Z,19.57
2019-02-20T18:11:43.853Z,13.80
2019-02-20T18:14:12.137Z,12.37
2019-02-20T18:16:40.625Z,16.13
2019-02-20T18:19:09.270Z,16.07
2019-02-20T18:21:37.750Z,13.57
2019-02-20T18:24:06.246Z,13.80
2019-02-20T18:26:34.824Z,10.73
2019-02-20T18:29:03.201Z,11.47
2019-02-20T18:31:31.727Z,13.00
2019-02-20T18:34:00.521Z,16.37
2019-02-20T18:36:28.651Z,13.00
2019-02-20T18:39:02.331Z,13.50
2019-02-20T18:41:30.469Z,15.77
2019-02-20T18:44:00.035Z,13.07
2019-02-20T18:46:28.224Z,14.33
2019-02-20T18:48:56.408Z,15.73
2019-02-20T18:51:24.032Z,12.30
2019-02-20T18:53:53.048Z,18.53
2019-02-20T18:56:21.957Z,18.03
2019-02-20T18:58:50.142Z,19.73
2019-02-20T19:01:18.690Z,12.93
2019-02-20T19:03:48.359Z,25.20
2019-02-20T19:06:30.905Z,16.80
2019-02-20T19:09:10.740Z,9.70
2019-02-20T19:12:20.879Z,8.50
2019-02-20T19:15:19.541Z,12.63
2019-02-20T19:18:35.079Z,9.60
2019-02-20T19:21:33.199Z,10.03
2019-02-20T19:24:41.947Z,11.10
2019-02-20T19:27:52.164Z,9.77
2019-02-20T19:31:21.966Z,12.43
2019-02-20T19:34:39.835Z,13.73
2019-02-20T19:37:15.301Z,12.67
2019-02-20T19:40:28.505Z,8.63
2019-02-20T19:43:26.993Z,7.83
2019-02-20T19:46:35.717Z,8.30
2019-02-20T19:49:34.486Z,8.10
2019-02-20T19:52:35.999Z,10.37
2019-02-20T19:55:21.788Z,11.70
2019-02-20T19:58:29.555Z,13.53
2019-02-20T20:01:44.770Z,13.33
2019-02-20T20:05:00.752Z,14.67
2019-02-20T20:07:55.520Z,11.67
2019-02-20T20:11:10.834Z,10.00
2019-02-20T20:13:49.514Z,10.70
2019-02-20T20:16:50.979Z,8.57
2019-02-20T20:20:08.907Z,11.47
2019-02-20T20:22:55.776Z,8.37
2019-02-20T20:26:11.637Z,8.20
2019-02-20T20:29:27.258Z,7.77
2019-02-20T20:32:35.104Z,8.33
2019-02-20T20:36:06.190Z,8.40
2019-02-20T20:39:00.135Z,11.30
2019-02-20T20:42:12.429Z,6.73
2019-02-20T20:45:13.823Z,8.67
2019-02-20T20:48:24.995Z,12.53
2019-02-20T20:51:31.418Z,10.70
2019-02-20T20:54:39.732Z,15.73
2019-02-20T20:57:22.182Z,20.93
2019-02-20T21:00:33.862Z,17.93
2019-02-20T21:03:06.492Z,12.50
2019-02-20T21:06:12.511Z,14.87
2019-02-20T21:08:58.411Z,11.60
2019-02-20T21:12:20.290Z,7.80
2019-02-20T21:15:10.656Z,9.40
2019-02-20T21:18:25.270Z,9.07
2019-02-20T21:21:15.902Z,10.80
2019-02-20T21:24:24.585Z,13.80
2019-02-20T21:27:18.614Z,9.00
2019-02-20T21:30:43.323Z,11.87
2019-02-20T21:33:55.044Z,10.53
2019-02-20T21:36:56.046Z,8.90
2019-02-20T21:39:35.404Z,11.90
2019-02-20T21:42:13.591Z,9.97
2019-02-20T21:45:03.991Z,9.10
2019-02-20T21:48:29.157Z,9.60
2019-02-20T21:51:37.912Z,9.20
2019-02-20T21:54:30.671Z,13.37
2019-02-20T21:57:40.384Z,11.77
2019-02-20T22:00:28.000Z,9.10
2019-02-20T22:03:40.468Z,10.30
2019-02-20T22:06:54.821Z,11.73
2019-02-20T22:09:45.882Z,13.37
2019-02-20T22:12:52.241Z,11.93
2019-02-20T22:16:07.891Z,10.50
2019-02-20T22:18:53.668Z,11.70
2019-02-20T22:22:02.807Z,8.60
2019-02-20T22:25:04.771Z,15.73
2019-02-20T22:28:20.263Z,9.80
2019-02-20T22:31:00.982Z,10.27
2019-02-20T22:33:40.798Z,12.67
2019-02-20T22:36:53.211Z,10.40
2019-02-20T22:40:05.442Z,6.70
2019-02-20T22:42:52.723Z,7.67
2019-02-20T22:45:52.972Z,9.90
2019-02-20T22:48:35.810Z,7.43
2019-02-20T22:51:32.297Z,8.17
2019-02-20T22:54:26.287Z,8.13
2019-02-20T22:57:32.549Z,7.63
2019-02-20T23:00:53.366Z,12.13
2019-02-20T23:04:10.727Z,12.40
2019-02-20T23:07:05.001Z,9.33
2019-02-20T23:09:58.464Z,13.97
2019-02-20T23:12:59.895Z,9.83
2019-02-20T23:15:28.604Z,14.20
2019-02-20T23:17:57.759Z,12.07
2019-02-20T23:20:26.668Z,11.87
2019-02-20T23:22:57.012Z,8.30
2019-02-20T23:25:24.861Z,9.37
2019-02-20T23:27:53.557Z,8.60
2019-02-20T23:30:21.719Z,10.63
2019-02-20T23:32:49.513Z,11.60
2019-02-20T23:35:17.553Z,9.13
2019-02-20T23:37:45.626Z,8.30
2019-02-20T23:40:13.308Z,9.90
2019-02-20T23:42:42.872Z,10.43
2019-02-20T23:45:11.389Z,9.13
2019-02-20T23:47:39.977Z,10.30
2019-02-20T23:50:09.159Z,8.73
2019-02-20T23:52:37.442Z,8.67
2019-02-20T23:55:05.522Z,9.40
2019-02-20T23:57:33.647Z,11.40
